Time;durP1;ratioP1;P1;durP2;ratioP2;P2;SDS_P1;SDS_P2;PMS_P1;PMS_P2;Temp;Humidity;BMP_temperature;BMP_pressure;BME280_temperature;BME280_humidity;BME280_pressure;Samples;Min_cycle;Max_cycle;Signal;HPM_P1;HPM_P2
2022/12/29 00:01:02;;;;;;;;;;;9.90;99.90;;;;;;5090652;28;20636;-68
2022/12/29 00:03:28;;;;;;;;;;;9.80;99.90;;;;;;5066965;28;20326;-66
2022/12/29 00:05:54;;;;;;;;;;;9.80;99.90;;;;;;5089656;28;19915;-65
2022/12/29 00:08:38;;;;;;;;;;;9.80;99.90;;;;;;5093082;28;19978;-66
2022/12/29 00:11:08;;;;;;;;;;;9.80;99.90;;;;;;5098010;28;19922;-66
2022/12/29 00:16:18;;;;;;;;;;;9.80;99.90;;;;;;5111729;27;20006;-66
2022/12/29 00:18:44;;;;;;;;;;;9.80;99.90;;;;;;5099960;28;20318;-65
2022/12/29 00:35:09;;;;;;;;;;;9.90;99.90;;;;;;5110281;28;20219;-66
2022/12/29 00:45:52;;;;;;;;;;;9.90;99.90;;;;;;5083865;28;20003;-66
2022/12/29 00:49:29;;;;;;;;;;;10.00;99.90;;;;;;5071427;28;20076;-65
2022/12/29 00:51:03;;;;;;;;;;;10.00;99.90;;;;;;5110355;28;19916;-67
2022/12/29 00:53:29;;;;;;;;;;;10.00;99.90;;;;;;5084705;28;19926;-66
2022/12/29 00:55:54;;;;;;;;;;;10.00;99.90;;;;;;5110288;28;19927;-65
2022/12/29 00:58:20;;;;;;;;;;;10.00;99.90;;;;;;5110216;28;19916;-66
2022/12/29 01:00:45;;;;;;;;;;;10.10;99.90;;;;;;5080759;28;20242;-65
2022/12/29 01:03:11;;;;;;;;;;;10.10;99.90;;;;;;5084824;28;20010;-66
2022/12/29 01:05:37;;;;;;;;;;;10.10;99.90;;;;;;5091048;28;19950;-64
2022/12/29 01:08:02;;;;;;;;;;;10.10;99.90;;;;;;5102080;28;20317;-65
2022/12/29 01:10:28;;;;;;;;;;;10.10;99.90;;;;;;5092248;28;20294;-64
2022/12/29 01:12:54;;;;;;;;;;;10.10;99.90;;;;;;5090007;28;20416;-66
2022/12/29 01:15:19;;;;;;;;;;;10.10;99.90;;;;;;5111022;28;19916;-66
2022/12/29 01:17:45;;;;;;;;;;;10.10;99.90;;;;;;5094235;28;20038;-66
2022/12/29 01:20:10;;;;;;;;;;;10.10;99.90;;;;;;5072462;28;19920;-66
2022/12/29 01:22:36;;;;;;;;;;;10.10;99.90;;;;;;5078417;28;19963;-66
2022/12/29 01:25:02;;;;;;;;;;;10.20;99.90;;;;;;5109972;28;19928;-65
2022/12/29 01:27:28;;;;;;;;;;;10.10;99.90;;;;;;5086782;28;19955;-65
2022/12/29 01:29:53;;;;;;;;;;;10.10;99.90;;;;;;5092055;28;20325;-65
2022/12/29 01:32:19;;;;;;;;;;;10.10;99.90;;;;;;5109786;28;19939;-66
2022/12/29 01:34:45;;;;;;;;;;;10.20;99.90;;;;;;5067943;28;19947;-67
2022/12/29 01:37:11;;;;;;;;;;;10.20;99.90;;;;;;5103751;28;19956;-66
2022/12/29 01:39:37;;;;;;;;;;;10.20;99.90;;;;;;5092503;28;20275;-66
2022/12/29 01:42:03;;;;;;;;;;;10.10;99.90;;;;;;5106420;28;19930;-66
2022/12/29 01:44:48;;;;;;;;;;;10.10;99.90;;;;;;5102324;28;19946;-67
2022/12/29 01:47:36;;;;;;;;;;;10.10;99.90;;;;;;5096827;28;20360;-66
2022/12/29 01:50:04;;;;;;;;;;;10.10;99.90;;;;;;5096309;28;19922;-66
2022/12/29 01:52:30;;;;;;;;;;;10.10;99.90;;;;;;5099964;28;19922;-68
2022/12/29 01:54:55;;;;;;;;;;;10.10;99.90;;;;;;5084705;28;20260;-65
2022/12/29 01:57:22;;;;;;;;;;;10.10;99.90;;;;;;5084431;28;20340;-68
2022/12/29 02:00:11;;;;;;;;;;;10.10;99.90;;;;;;5085363;28;19963;-65
2022/12/29 02:02:37;;;;;;;;;;;10.10;99.90;;;;;;5083175;28;20377;-65
2022/12/29 02:05:05;;;;;;;;;;;10.10;99.90;;;;;;5078823;28;19916;-66
2022/12/29 02:07:30;;;;;;;;;;;10.10;99.90;;;;;;5102034;28;20332;-65
2022/12/29 02:09:56;;;;;;;;;;;10.00;99.90;;;;;;5096234;28;19916;-66
2022/12/29 02:12:22;;;;;;;;;;;10.00;99.90;;;;;;5090190;28;19943;-65
2022/12/29 02:14:48;;;;;;;;;;;10.00;99.90;;;;;;5092100;28;20253;-66
2022/12/29 02:17:13;;;;;;;;;;;10.00;99.90;;;;;;5090339;28;19926;-66
2022/12/29 02:19:57;;;;;;;;;;;10.00;99.90;;;;;;5089234;28;19916;-66
2022/12/29 02:22:32;;;;;;;;;;;10.00;99.90;;;;;;5088249;28;20436;-67
2022/12/29 02:25:13;;;;;;;;;;;10.00;99.90;;;;;;5089423;28;19926;-66
2022/12/29 02:27:57;;;;;;;;;;;10.00;99.90;;;;;;5058366;28;20003;-65
2022/12/29 02:30:42;;;;;;;;;;;10.00;99.90;;;;;;5078143;28;19984;-66
2022/12/29 02:33:13;;;;;;;;;;;9.90;99.90;;;;;;5103584;28;19916;-65
2022/12/29 02:35:57;;;;;;;;;;;10.00;99.90;;;;;;5104018;28;19927;-65
2022/12/29 02:38:41;;;;;;;;;;;9.90;99.90;;;;;;5098917;28;19959;-66
2022/12/29 02:41:26;;;;;;;;;;;9.90;99.90;;;;;;5096413;28;20347;-66
2022/12/29 02:44:01;;;;;;;;;;;9.90;99.90;;;;;;5098904;28;19915;-65
2022/12/29 02:46:45;;;;;;;;;;;9.90;99.90;;;;;;5096654;28;19920;-66
2022/12/29 02:49:32;;;;;;;;;;;9.90;99.90;;;;;;5090924;28;19920;-67
2022/12/29 02:51:58;;;;;;;;;;;9.90;99.90;;;;;;5108040;28;19964;-66
2022/12/29 02:54:43;;;;;;;;;;;9.90;99.90;;;;;;5098508;28;19915;-66
2022/12/29 02:57:26;;;;;;;;;;;9.90;99.90;;;;;;5104485;28;19965;-67
2022/12/29 02:59:53;;;;;;;;;;;9.90;99.90;;;;;;5098711;28;19924;-65
2022/12/29 03:02:39;;;;;;;;;;;9.90;99.90;;;;;;5092227;28;20030;-66
2022/12/29 03:05:20;;;;;;;;;;;9.90;99.90;;;;;;5091834;28;19916;-65
2022/12/29 03:08:05;;;;;;;;;;;10.00;99.90;;;;;;5109890;28;19962;-65
2022/12/29 03:10:44;;;;;;;;;;;10.10;99.90;;;;;;5105166;28;20246;-66
2022/12/29 03:16:03;;;;;;;;;;;10.10;99.90;;;;;;5109941;28;19916;-66
2022/12/29 03:18:32;;;;;;;;;;;10.10;99.90;;;;;;5108231;28;19955;-65
2022/12/29 03:21:01;;;;;;;;;;;10.20;99.90;;;;;;5095104;28;19955;-65
2022/12/29 03:23:26;;;;;;;;;;;10.20;99.90;;;;;;5090619;28;20412;-66
2022/12/29 03:25:53;;;;;;;;;;;10.30;99.90;;;;;;5091500;28;19947;-65
2022/12/29 03:28:29;;;;;;;;;;;10.40;99.90;;;;;;5093213;28;19998;-65
2022/12/29 03:30:55;;;;;;;;;;;10.40;99.90;;;;;;5075653;28;19976;-64
2022/12/29 03:33:22;;;;;;;;;;;10.50;99.90;;;;;;5081210;28;19927;-65
2022/12/29 03:35:48;;;;;;;;;;;10.50;99.90;;;;;;5095616;28;19927;-66
2022/12/29 03:38:16;;;;;;;;;;;10.50;99.90;;;;;;5058957;28;19925;-67
2022/12/29 03:40:43;;;;;;;;;;;10.60;99.90;;;;;;5096355;28;19951;-66
2022/12/29 03:43:09;;;;;;;;;;;10.60;99.90;;;;;;5094449;28;19976;-65
2022/12/29 03:45:34;;;;;;;;;;;10.60;99.90;;;;;;5055984;28;19921;-66
2022/12/29 03:48:00;;;;;;;;;;;10.60;99.90;;;;;;5085876;28;19955;-66
2022/12/29 03:50:26;;;;;;;;;;;10.70;99.90;;;;;;5107764;28;19916;-64
2022/12/29 03:52:51;;;;;;;;;;;10.70;99.90;;;;;;5101089;28;19959;-65
2022/12/29 03:55:17;;;;;;;;;;;10.80;99.90;;;;;;5085096;28;19979;-66
2022/12/29 03:57:42;;;;;;;;;;;10.80;99.90;;;;;;5112183;28;20397;-65
2022/12/29 04:00:08;;;;;;;;;;;10.70;99.90;;;;;;5091591;28;20320;-66
2022/12/29 04:02:34;;;;;;;;;;;10.80;99.90;;;;;;5100602;28;19919;-65
2022/12/29 04:04:59;;;;;;;;;;;10.80;99.90;;;;;;5087928;28;19916;-66
2022/12/29 04:07:25;;;;;;;;;;;10.70;99.90;;;;;;5083464;28;20291;-65
2022/12/29 04:09:51;;;;;;;;;;;10.80;99.90;;;;;;5098856;28;20011;-66
2022/12/29 04:12:16;;;;;;;;;;;10.80;99.90;;;;;;5080931;28;20598;-67
2022/12/29 04:14:42;;;;;;;;;;;10.80;99.90;;;;;;5098474;28;19962;-67
2022/12/29 04:17:08;;;;;;;;;;;10.80;99.90;;;;;;5080415;28;19926;-66
2022/12/29 04:19:33;;;;;;;;;;;10.80;99.90;;;;;;5094733;28;19915;-66
2022/12/29 04:21:59;;;;;;;;;;;10.70;99.90;;;;;;5091446;28;19919;-66
2022/12/29 04:24:25;;;;;;;;;;;10.70;99.90;;;;;;5087313;28;19942;-66
2022/12/29 04:26:50;;;;;;;;;;;10.70;99.90;;;;;;5103780;28;19998;-66
2022/12/29 04:29:16;;;;;;;;;;;10.70;99.90;;;;;;5070315;28;19970;-67
2022/12/29 04:31:41;;;;;;;;;;;10.80;99.90;;;;;;5082297;28;19922;-66
2022/12/29 04:34:07;;;;;;;;;;;10.70;99.90;;;;;;5107363;28;19916;-66
2022/12/29 04:36:33;;;;;;;;;;;10.80;99.90;;;;;;5082054;28;19991;-65
2022/12/29 04:38:58;;;;;;;;;;;10.70;99.90;;;;;;5070331;28;19954;-66
2022/12/29 04:41:24;;;;;;;;;;;10.70;99.90;;;;;;5101276;28;19933;-65
2022/12/29 04:43:50;;;;;;;;;;;10.70;99.90;;;;;;5095124;28;20368;-67
2022/12/29 04:46:15;;;;;;;;;;;10.80;99.90;;;;;;5082759;28;20007;-65
2022/12/29 04:48:41;;;;;;;;;;;10.80;99.90;;;;;;5087328;28;20363;-68
2022/12/29 04:51:06;;;;;;;;;;;10.90;99.90;;;;;;5108219;28;20276;-68
2022/12/29 04:53:32;;;;;;;;;;;10.90;99.90;;;;;;5095495;28;19939;-66
2022/12/29 04:55:58;;;;;;;;;;;11.00;99.90;;;;;;5098701;28;19926;-68
2022/12/29 04:58:23;;;;;;;;;;;11.00;99.90;;;;;;5094615;28;20006;-65
2022/12/29 05:00:50;;;;;;;;;;;11.00;99.90;;;;;;5104847;28;19922;-66
2022/12/29 05:03:15;;;;;;;;;;;11.00;99.90;;;;;;5079634;28;19963;-67
2022/12/29 05:05:41;;;;;;;;;;;11.00;99.90;;;;;;5112264;28;19966;-66
2022/12/29 05:08:06;;;;;;;;;;;11.00;99.90;;;;;;5080101;28;19992;-65
2022/12/29 05:10:32;;;;;;;;;;;11.00;99.90;;;;;;5098045;28;19923;-65
2022/12/29 05:12:58;;;;;;;;;;;11.00;99.90;;;;;;5062728;28;19987;-67
2022/12/29 05:15:23;;;;;;;;;;;11.00;99.90;;;;;;5076099;28;20318;-67
2022/12/29 05:17:49;;;;;;;;;;;11.00;99.90;;;;;;5085258;28;19916;-68
2022/12/29 05:20:15;;;;;;;;;;;11.00;99.90;;;;;;5108658;28;19916;-65
2022/12/29 05:22:40;;;;;;;;;;;11.10;99.90;;;;;;5076328;28;19916;-66
2022/12/29 05:25:06;;;;;;;;;;;11.00;99.90;;;;;;5111184;28;20291;-66
2022/12/29 05:27:32;;;;;;;;;;;11.00;99.90;;;;;;5087333;28;20283;-66
2022/12/29 05:29:57;;;;;;;;;;;11.00;99.90;;;;;;5101905;28;20419;-66
2022/12/29 05:32:23;;;;;;;;;;;11.00;99.90;;;;;;5091339;28;20245;-67
2022/12/29 05:34:49;;;;;;;;;;;11.00;99.90;;;;;;5081037;28;19923;-66
2022/12/29 05:37:15;;;;;;;;;;;11.00;99.90;;;;;;5107730;28;19931;-66
2022/12/29 05:39:40;;;;;;;;;;;10.90;99.90;;;;;;5087604;28;20489;-66
2022/12/29 05:42:06;;;;;;;;;;;10.90;99.90;;;;;;5088824;28;19920;-66
2022/12/29 05:44:32;;;;;;;;;;;11.00;99.90;;;;;;5089281;28;19916;-66
2022/12/29 05:46:59;;;;;;;;;;;11.00;99.90;;;;;;5109147;28;19912;-67
2022/12/29 05:49:24;;;;;;;;;;;10.90;99.90;;;;;;5077916;28;19951;-67
2022/12/29 05:51:50;;;;;;;;;;;11.00;99.90;;;;;;5093194;28;19962;-68
2022/12/29 05:54:15;;;;;;;;;;;11.00;99.90;;;;;;5104687;28;19955;-65
2022/12/29 05:56:41;;;;;;;;;;;11.00;99.90;;;;;;5088624;28;19920;-67
2022/12/29 05:59:07;;;;;;;;;;;11.10;99.90;;;;;;5111493;28;19942;-65
2022/12/29 06:01:34;;;;;;;;;;;11.10;99.90;;;;;;5110724;28;19919;-67
2022/12/29 06:03:59;;;;;;;;;;;11.10;99.90;;;;;;5106194;28;19912;-67
2022/12/29 06:06:25;;;;;;;;;;;11.10;99.90;;;;;;5075668;28;19912;-67
2022/12/29 06:08:51;;;;;;;;;;;11.20;99.90;;;;;;5093197;28;20717;-66
2022/12/29 06:11:16;;;;;;;;;;;11.20;99.90;;;;;;5098180;28;19920;-65
2022/12/29 06:13:42;;;;;;;;;;;11.20;99.90;;;;;;5097550;28;20210;-66
2022/12/29 06:16:08;;;;;;;;;;;11.20;99.90;;;;;;5071270;28;20413;-67
2022/12/29 06:18:33;;;;;;;;;;;11.20;99.90;;;;;;5088455;28;20397;-68
2022/12/29 06:21:00;;;;;;;;;;;11.30;99.90;;;;;;5085954;28;20253;-67
2022/12/29 06:23:26;;;;;;;;;;;11.20;99.90;;;;;;5097393;28;19994;-66
2022/12/29 06:25:52;;;;;;;;;;;11.20;99.90;;;;;;5101798;28;20017;-66
2022/12/29 06:28:17;;;;;;;;;;;11.20;99.90;;;;;;5105514;28;20362;-66
2022/12/29 06:30:44;;;;;;;;;;;11.20;99.90;;;;;;5109401;28;19915;-65
2022/12/29 06:33:10;;;;;;;;;;;11.20;99.90;;;;;;5103818;28;19922;-66
2022/12/29 06:35:35;;;;;;;;;;;11.30;99.90;;;;;;5104189;28;19916;-68
2022/12/29 06:38:01;;;;;;;;;;;11.30;99.90;;;;;;5090881;28;20216;-66
2022/12/29 06:40:26;;;;;;;;;;;11.30;99.90;;;;;;5088817;28;19912;-67
2022/12/29 06:42:53;;;;;;;;;;;11.30;99.90;;;;;;5088343;28;20417;-65
2022/12/29 06:45:19;;;;;;;;;;;11.30;99.90;;;;;;5085456;28;19915;-66
2022/12/29 06:47:44;;;;;;;;;;;11.20;99.90;;;;;;5087544;28;19977;-67
2022/12/29 06:50:10;;;;;;;;;;;11.20;99.90;;;;;;5091742;28;19965;-67
2022/12/29 06:52:36;;;;;;;;;;;11.20;99.90;;;;;;5104478;28;19923;-65
2022/12/29 06:55:02;;;;;;;;;;;11.30;99.90;;;;;;5086960;28;19923;-66
2022/12/29 06:57:27;;;;;;;;;;;11.30;99.90;;;;;;5094310;28;19935;-67
2022/12/29 06:59:55;;;;;;;;;;;11.30;99.90;;;;;;5097145;28;20328;-66
2022/12/29 07:02:21;;;;;;;;;;;11.40;99.90;;;;;;5101124;28;19919;-66
2022/12/29 07:04:47;;;;;;;;;;;11.40;99.90;;;;;;5059665;28;20027;-66
2022/12/29 07:07:12;;;;;;;;;;;11.40;99.90;;;;;;5063318;28;20036;-66
2022/12/29 07:09:38;;;;;;;;;;;11.40;99.90;;;;;;5060718;28;20525;-66
2022/12/29 07:12:04;;;;;;;;;;;11.50;99.90;;;;;;5097054;28;20241;-66
2022/12/29 07:14:29;;;;;;;;;;;11.50;99.90;;;;;;5099792;28;19920;-65
2022/12/29 07:16:55;;;;;;;;;;;11.50;99.90;;;;;;5100930;28;19916;-64
2022/12/29 07:19:21;;;;;;;;;;;11.50;99.90;;;;;;5083167;28;20304;-66
2022/12/29 07:21:46;;;;;;;;;;;11.50;99.90;;;;;;5070935;28;19951;-66
2022/12/29 07:24:12;;;;;;;;;;;11.50;99.90;;;;;;5086682;28;19917;-65
2022/12/29 07:26:38;;;;;;;;;;;11.50;99.90;;;;;;5087941;28;20640;-65
2022/12/29 07:29:03;;;;;;;;;;;11.50;99.90;;;;;;5077105;28;19917;-67
2022/12/29 07:31:32;;;;;;;;;;;11.50;99.90;;;;;;5083513;28;19984;-66
2022/12/29 07:33:58;;;;;;;;;;;11.50;99.90;;;;;;5096437;28;19916;-67
2022/12/29 07:36:23;;;;;;;;;;;11.50;99.90;;;;;;5069892;28;19920;-67
2022/12/29 07:38:49;;;;;;;;;;;11.50;99.90;;;;;;5094937;28;19916;-67
2022/12/29 07:41:15;;;;;;;;;;;11.50;99.90;;;;;;5085086;28;19916;-66
2022/12/29 07:43:40;;;;;;;;;;;11.50;99.90;;;;;;5071404;28;20398;-66
2022/12/29 07:46:06;;;;;;;;;;;11.50;99.90;;;;;;5087958;28;19916;-67
2022/12/29 07:48:35;;;;;;;;;;;11.50;99.90;;;;;;5092470;28;19978;-67
2022/12/29 07:51:01;;;;;;;;;;;11.50;99.90;;;;;;5095823;28;20734;-67
2022/12/29 07:53:26;;;;;;;;;;;11.50;99.90;;;;;;5105202;28;20002;-66
2022/12/29 07:55:52;;;;;;;;;;;11.50;99.90;;;;;;5061756;28;19927;-66
2022/12/29 07:58:18;;;;;;;;;;;11.50;99.90;;;;;;5089362;28;19923;-67
2022/12/29 08:00:44;;;;;;;;;;;11.50;99.90;;;;;;5085165;28;19912;-68
2022/12/29 08:03:09;;;;;;;;;;;11.50;99.90;;;;;;5097870;28;19946;-67
2022/12/29 08:05:35;;;;;;;;;;;11.60;99.90;;;;;;5106982;28;20347;-68
2022/12/29 08:08:00;;;;;;;;;;;11.60;99.90;;;;;;5108272;28;19930;-66
2022/12/29 08:10:26;;;;;;;;;;;11.60;99.90;;;;;;5094406;28;19916;-68
2022/12/29 08:12:52;;;;;;;;;;;11.60;99.90;;;;;;5073436;28;19926;-67
2022/12/29 08:15:18;;;;;;;;;;;11.60;99.90;;;;;;5077489;28;19941;-67
2022/12/29 08:17:43;;;;;;;;;;;11.70;99.90;;;;;;5085062;28;19998;-68
2022/12/29 08:20:13;;;;;;;;;;;11.70;99.90;;;;;;5105642;28;19920;-66
2022/12/29 08:22:39;;;;;;;;;;;11.70;99.90;;;;;;5097605;28;19977;-67
2022/12/29 08:25:05;;;;;;;;;;;11.70;99.90;;;;;;5090159;28;20293;-66
2022/12/29 08:27:30;;;;;;;;;;;11.60;99.90;;;;;;5072424;28;19931;-65
2022/12/29 08:29:56;;;;;;;;;;;11.60;99.90;;;;;;5101571;28;19920;-68
2022/12/29 08:32:22;;;;;;;;;;;11.60;99.90;;;;;;5111018;28;20616;-67
2022/12/29 08:34:47;;;;;;;;;;;11.50;99.90;;;;;;5068188;28;19928;-69
2022/12/29 08:37:13;;;;;;;;;;;11.50;99.90;;;;;;5066859;28;19920;-68
2022/12/29 08:39:38;;;;;;;;;;;11.40;99.90;;;;;;5079384;28;20472;-68
2022/12/29 08:42:04;;;;;;;;;;;11.50;99.90;;;;;;5085122;28;20019;-67
2022/12/29 08:44:30;;;;;;;;;;;11.50;99.90;;;;;;5107213;28;19916;-67
2022/12/29 08:46:55;;;;;;;;;;;11.50;99.90;;;;;;5090917;28;19915;-68
2022/12/29 08:49:21;;;;;;;;;;;11.50;99.90;;;;;;5105433;28;20248;-66
2022/12/29 08:51:47;;;;;;;;;;;11.50;99.90;;;;;;5088981;28;19927;-64
2022/12/29 08:54:12;;;;;;;;;;;11.50;99.90;;;;;;5080039;28;19922;-67
2022/12/29 08:56:38;;;;;;;;;;;11.50;99.90;;;;;;5102341;28;20254;-68
2022/12/29 08:59:04;;;;;;;;;;;11.60;99.90;;;;;;5089821;28;19916;-68
2022/12/29 09:01:30;;;;;;;;;;;11.60;99.90;;;;;;5079212;28;19922;-68
2022/12/29 09:03:55;;;;;;;;;;;11.60;99.90;;;;;;5069206;28;20034;-67
2022/12/29 09:06:21;;;;;;;;;;;11.60;99.90;;;;;;5070795;28;20441;-65
2022/12/29 09:08:47;;;;;;;;;;;11.60;99.90;;;;;;5085703;28;19920;-67
2022/12/29 09:11:14;;;;;;;;;;;11.60;99.90;;;;;;5091874;28;19920;-66
2022/12/29 09:13:39;;;;;;;;;;;11.70;99.90;;;;;;5055786;28;19927;-65
2022/12/29 09:16:05;;;;;;;;;;;11.70;99.90;;;;;;5089936;28;19913;-64
2022/12/29 09:18:40;;;;;;;;;;;11.60;99.90;;;;;;5057957;28;19928;-66
2022/12/29 09:21:06;;;;;;;;;;;11.60;99.90;;;;;;5067753;28;19962;-66
2022/12/29 09:23:31;;;;;;;;;;;11.60;99.90;;;;;;5076435;28;19927;-65
2022/12/29 09:25:57;;;;;;;;;;;11.60;99.90;;;;;;5072016;28;19928;-65
2022/12/29 09:28:22;;;;;;;;;;;11.50;99.90;;;;;;5087836;28;19916;-66
2022/12/29 09:30:48;;;;;;;;;;;11.50;99.90;;;;;;5091451;28;19924;-66
2022/12/29 09:33:14;;;;;;;;;;;11.60;99.90;;;;;;5054956;28;19942;-65
2022/12/29 09:35:43;;;;;;;;;;;11.50;99.90;;;;;;5089894;28;19927;-66
2022/12/29 09:38:09;;;;;;;;;;;11.50;99.90;;;;;;5071399;28;19928;-67
2022/12/29 09:40:34;;;;;;;;;;;11.50;99.90;;;;;;5073859;28;19916;-66
2022/12/29 09:43:14;;;;;;;;;;;11.40;99.90;;;;;;5076546;28;22027;-64
2022/12/29 09:46:06;;;;;;;;;;;11.30;99.90;;;;;;5087153;28;20637;-66
2022/12/29 09:48:37;;;;;;;;;;;11.20;99.90;;;;;;5073040;28;19966;-65
2022/12/29 09:51:05;;;;;;;;;;;11.00;99.90;;;;;;5091289;28;19924;-65
2022/12/29 09:53:34;;;;;;;;;;;10.90;99.90;;;;;;5074959;28;20413;-65
2022/12/29 09:56:00;;;;;;;;;;;10.90;99.90;;;;;;5103491;28;19916;-66
2022/12/29 09:58:26;;;;;;;;;;;10.90;99.90;;;;;;5092008;28;20257;-65
2022/12/29 10:01:04;;;;;;;;;;;10.90;99.90;;;;;;5095421;28;19919;-65
2022/12/29 10:03:56;;;;;;;;;;;10.90;99.90;;;;;;5082895;28;19966;-67
2022/12/29 10:06:23;;;;;;;;;;;10.90;99.90;;;;;;5091882;28;19920;-67
2022/12/29 10:09:07;;;;;;;;;;;11.00;99.90;;;;;;5109164;28;19963;-66
2022/12/29 10:11:33;;;;;;;;;;;10.90;99.90;;;;;;5099812;28;19951;-67
2022/12/29 10:14:11;;;;;;;;;;;10.90;99.90;;;;;;5099580;28;19975;-66
2022/12/29 10:16:43;;;;;;;;;;;10.90;99.90;;;;;;5096470;28;19919;-66
2022/12/29 10:19:21;;;;;;;;;;;11.00;99.90;;;;;;5101016;28;20389;-65
2022/12/29 10:22:09;;;;;;;;;;;11.00;99.90;;;;;;5078587;28;19928;-65
2022/12/29 10:24:35;;;;;;;;;;;11.10;99.90;;;;;;5080204;28;19915;-66
2022/12/29 10:27:00;;;;;;;;;;;11.10;99.90;;;;;;5091626;28;19916;-65
2022/12/29 10:29:33;;;;;;;;;;;11.10;99.90;;;;;;5067649;28;20171;-66
2022/12/29 10:32:00;;;;;;;;;;;11.10;99.90;;;;;;5091041;28;19963;-66
2022/12/29 10:34:28;;;;;;;;;;;11.10;99.90;;;;;;5085261;28;20404;-67
2022/12/29 10:36:56;;;;;;;;;;;11.30;99.90;;;;;;5090051;28;19923;-67
2022/12/29 10:39:35;;;;;;;;;;;11.30;99.90;;;;;;5087412;28;19924;-68
2022/12/29 10:42:06;;;;;;;;;;;11.40;99.90;;;;;;5101285;28;19923;-67
2022/12/29 10:44:34;;;;;;;;;;;11.60;99.90;;;;;;5108758;28;19920;-66
2022/12/29 10:47:06;;;;;;;;;;;11.70;99.90;;;;;;5097092;28;20017;-65
2022/12/29 10:49:32;;;;;;;;;;;11.60;99.90;;;;;;5104565;28;19939;-65
2022/12/29 10:51:58;;;;;;;;;;;11.60;99.90;;;;;;5093352;28;20244;-66
2022/12/29 10:54:44;;;;;;;;;;;11.60;99.90;;;;;;5078153;28;19916;-66
2022/12/29 10:57:17;;;;;;;;;;;11.50;99.90;;;;;;5090190;28;19916;-66
2022/12/29 10:59:43;;;;;;;;;;;11.60;99.90;;;;;;5064526;28;19916;-67
2022/12/29 11:02:11;;;;;;;;;;;11.50;99.90;;;;;;5093763;28;19920;-65
2022/12/29 11:04:46;;;;;;;;;;;11.70;99.90;;;;;;5095612;28;19916;-66
2022/12/29 11:07:12;;;;;;;;;;;12.10;99.90;;;;;;5088796;28;19920;-65
2022/12/29 11:09:38;;;;;;;;;;;12.30;99.90;;;;;;5094459;28;19915;-67
2022/12/29 11:12:30;;;;;;;;;;;12.30;99.90;;;;;;5095822;28;19926;-68
2022/12/29 11:15:14;;;;;;;;;;;12.80;99.90;;;;;;5097588;28;19924;-66
2022/12/29 11:17:43;;;;;;;;;;;13.00;99.90;;;;;;5112437;28;19999;-67
2022/12/29 11:20:19;;;;;;;;;;;13.40;99.90;;;;;;5064201;28;19916;-68
2022/12/29 11:22:45;;;;;;;;;;;13.60;99.90;;;;;;5108790;28;20291;-67
2022/12/29 11:25:12;;;;;;;;;;;13.50;99.90;;;;;;5088417;28;19916;-68
2022/12/29 11:27:37;;;;;;;;;;;13.20;99.90;;;;;;5090013;28;19961;-66
2022/12/29 11:30:11;;;;;;;;;;;13.20;99.90;;;;;;5107425;28;19916;-66
2022/12/29 11:32:36;;;;;;;;;;;12.80;99.90;;;;;;5092201;28;19995;-65
2022/12/29 11:35:02;;;;;;;;;;;12.60;99.90;;;;;;5084269;28;20035;-66
2022/12/29 11:37:38;;;;;;;;;;;12.50;99.90;;;;;;5057978;28;20011;-72
2022/12/29 11:40:19;;;;;;;;;;;12.30;99.90;;;;;;5091542;28;19912;-71
2022/12/29 11:43:02;;;;;;;;;;;12.30;99.90;;;;;;5087520;28;19924;-71
2022/12/29 11:45:34;;;;;;;;;;;12.30;99.90;;;;;;5095445;28;20234;-72
2022/12/29 11:48:01;;;;;;;;;;;12.30;99.90;;;;;;5083476;28;19922;-71
2022/12/29 11:50:29;;;;;;;;;;;12.30;99.90;;;;;;5067973;28;19912;-67
2022/12/29 11:52:58;;;;;;;;;;;12.10;99.90;;;;;;5101940;28;19916;-66
2022/12/29 11:55:24;;;;;;;;;;;12.00;99.90;;;;;;5102608;28;19978;-65
2022/12/29 11:57:50;;;;;;;;;;;11.90;99.90;;;;;;5069932;28;19916;-66
2022/12/29 12:00:24;;;;;;;;;;;11.80;99.90;;;;;;5090984;28;19923;-65
2022/12/29 12:02:54;;;;;;;;;;;11.60;99.90;;;;;;5062632;28;20354;-65
2022/12/29 12:05:30;;;;;;;;;;;11.30;99.90;;;;;;5091343;28;20319;-66
2022/12/29 12:08:16;;;;;;;;;;;11.10;99.90;;;;;;5092051;28;19935;-66
2022/12/29 12:10:46;;;;;;;;;;;11.00;99.90;;;;;;5105414;28;20337;-68
2022/12/29 12:13:19;;;;;;;;;;;10.90;99.90;;;;;;5081372;28;20502;-68
2022/12/29 12:15:53;;;;;;;;;;;10.90;99.90;;;;;;5092312;28;20000;-68
2022/12/29 12:18:23;;;;;;;;;;;11.00;99.90;;;;;;5090733;28;19955;-68
2022/12/29 12:20:54;;;;;;;;;;;11.00;99.90;;;;;;5107532;28;19922;-67
2022/12/29 12:23:22;;;;;;;;;;;11.00;99.90;;;;;;5112112;28;20035;-67
2022/12/29 12:25:52;;;;;;;;;;;11.00;99.90;;;;;;5090540;28;21314;-67
2022/12/29 12:28:19;;;;;;;;;;;11.00;99.90;;;;;;5093076;28;19927;-67
2022/12/29 12:30:46;;;;;;;;;;;10.90;99.90;;;;;;5103079;28;20396;-65
2022/12/29 12:33:15;;;;;;;;;;;11.10;99.90;;;;;;5089783;28;20059;-66
2022/12/29 12:35:41;;;;;;;;;;;11.30;99.90;;;;;;5063227;28;19938;-66
2022/12/29 12:38:29;;;;;;;;;;;11.50;99.90;;;;;;5074821;28;19920;-67
2022/12/29 12:40:58;;;;;;;;;;;11.90;99.90;;;;;;5106986;28;19923;-67
2022/12/29 12:43:26;;;;;;;;;;;12.10;99.90;;;;;;5076831;28;20503;-66
2022/12/29 12:46:00;;;;;;;;;;;12.40;99.90;;;;;;5095393;28;20222;-67
2022/12/29 12:48:44;;;;;;;;;;;12.20;99.90;;;;;;5072484;28;20010;-68
2022/12/29 12:51:20;;;;;;;;;;;12.10;99.90;;;;;;5104248;28;19916;-68
2022/12/29 12:54:01;;;;;;;;;;;12.20;99.90;;;;;;5094889;28;19912;-69
2022/12/29 12:56:45;;;;;;;;;;;11.90;99.90;;;;;;5097958;28;19915;-67
2022/12/29 12:59:29;;;;;;;;;;;11.60;99.90;;;;;;5097879;28;19916;-65
2022/12/29 13:02:01;;;;;;;;;;;11.50;99.90;;;;;;5091862;28;19920;-67
2022/12/29 13:04:34;;;;;;;;;;;11.40;99.90;;;;;;5087960;28;19912;-66
2022/12/29 13:07:04;;;;;;;;;;;11.30;99.90;;;;;;5100680;28;20002;-67
2022/12/29 13:09:48;;;;;;;;;;;11.30;99.90;;;;;;5076118;28;19923;-68
2022/12/29 13:12:23;;;;;;;;;;;11.20;99.90;;;;;;5095236;28;19995;-66
2022/12/29 13:14:52;;;;;;;;;;;11.20;99.90;;;;;;5083718;28;19945;-65
2022/12/29 13:17:39;;;;;;;;;;;11.10;99.90;;;;;;5077783;28;19916;-66
2022/12/29 13:20:17;;;;;;;;;;;11.10;99.90;;;;;;5092915;28;20556;-66
2022/12/29 13:23:01;;;;;;;;;;;11.10;99.90;;;;;;5103716;28;19916;-66
2022/12/29 13:25:30;;;;;;;;;;;11.10;99.90;;;;;;5111259;28;19923;-66
2022/12/29 13:27:57;;;;;;;;;;;11.10;99.90;;;;;;5101685;28;20041;-66
2022/12/29 13:30:26;;;;;;;;;;;11.10;99.90;;;;;;5092967;28;19947;-67
2022/12/29 13:33:04;;;;;;;;;;;11.00;99.90;;;;;;5082058;28;20316;-67
2022/12/29 13:35:46;;;;;;;;;;;11.10;99.90;;;;;;5093105;28;19955;-66
2022/12/29 13:38:15;;;;;;;;;;;11.00;99.90;;;;;;5108451;28;19954;-66
2022/12/29 13:40:41;;;;;;;;;;;11.10;99.90;;;;;;5109504;28;20382;-67
2022/12/29 13:43:07;;;;;;;;;;;11.10;99.90;;;;;;5092125;28;19930;-66
2022/12/29 13:45:33;;;;;;;;;;;11.10;99.90;;;;;;5103301;28;20257;-66
2022/12/29 13:48:04;;;;;;;;;;;11.10;99.90;;;;;;5091522;28;20000;-65
2022/12/29 13:50:31;;;;;;;;;;;11.10;99.90;;;;;;5109013;28;19927;-67
2022/12/29 13:53:12;;;;;;;;;;;11.10;99.90;;;;;;5089855;28;20317;-68
2022/12/29 13:55:41;;;;;;;;;;;11.10;99.90;;;;;;5089427;28;19951;-67
2022/12/29 13:58:06;;;;;;;;;;;11.10;99.90;;;;;;5099698;28;20405;-67
2022/12/29 14:00:35;;;;;;;;;;;11.10;99.90;;;;;;5089305;28;19959;-67
2022/12/29 14:03:20;;;;;;;;;;;11.10;99.90;;;;;;5071433;28;19930;-66
2022/12/29 14:05:48;;;;;;;;;;;11.10;99.90;;;;;;5101922;28;19916;-65
2022/12/29 14:08:15;;;;;;;;;;;11.20;99.90;;;;;;5092813;28;20004;-67
2022/12/29 14:10:50;;;;;;;;;;;11.20;99.90;;;;;;5101586;28;19916;-67
2022/12/29 14:13:16;;;;;;;;;;;11.20;99.90;;;;;;5072072;28;19915;-66
2022/12/29 14:15:43;;;;;;;;;;;11.20;99.90;;;;;;5108038;28;19923;-67
2022/12/29 14:18:17;;;;;;;;;;;11.20;99.90;;;;;;5103372;28;20467;-68
2022/12/29 14:21:01;;;;;;;;;;;11.20;99.90;;;;;;5084241;28;20379;-67
2022/12/29 14:23:29;;;;;;;;;;;11.20;99.90;;;;;;5091594;28;19920;-66
2022/12/29 14:25:58;;;;;;;;;;;11.20;99.90;;;;;;5091844;28;19919;-66
2022/12/29 14:28:42;;;;;;;;;;;11.30;99.90;;;;;;5101412;28;19912;-67
2022/12/29 14:31:14;;;;;;;;;;;11.30;99.90;;;;;;5095478;28;19969;-66
2022/12/29 14:33:40;;;;;;;;;;;11.30;99.90;;;;;;5083842;28;19976;-66
2022/12/29 14:36:21;;;;;;;;;;;11.30;99.90;;;;;;5107625;28;20384;-66
2022/12/29 14:38:47;;;;;;;;;;;11.30;99.90;;;;;;5108433;28;19942;-68
2022/12/29 14:41:16;;;;;;;;;;;11.40;99.90;;;;;;5087057;28;20309;-68
2022/12/29 14:43:50;;;;;;;;;;;11.30;99.90;;;;;;5097411;28;19928;-66
2022/12/29 14:46:16;;;;;;;;;;;11.30;99.90;;;;;;5094834;28;19916;-65
2022/12/29 14:48:42;;;;;;;;;;;11.30;99.90;;;;;;5111134;28;19931;-67
2022/12/29 14:51:37;;;;;;;;;;;11.30;99.90;;;;;;5087466;28;20413;-67
2022/12/29 14:54:22;;;;;;;;;;;11.30;99.90;;;;;;5065084;28;19920;-67
2022/12/29 14:56:48;;;;;;;;;;;11.30;99.90;;;;;;5094892;28;19916;-67
2022/12/29 14:59:13;;;;;;;;;;;11.40;99.90;;;;;;5094949;28;19916;-67